Terminal Aerodrome Forecast
Issued by NWS

Home | Current Version | Previous Version | Text Only | Print | Product List | Glossary On
Versions: 1 2 3 4 5 6 7 8 9 10 11 12 13 14 15 16 17 18 19
000
FTUS41 KCAR 251753 AAA
TAFFVE
TAF AMD
KFVE 251753Z 2518/2618 27011G22KT P6SM BKN250
     FM260000 25007KT P6SM FEW250
     FM260400 21005KT 3SM -SHRA BKN110
     FM260600 19005KT 2SM -SHRA OVC025
     FM261200 18005KT 3SM -SHRA OVC008
     FM261400 23009KT P6SM OVC008=

USA.gov is the U.S. government's official web portal to all federal, state and local government web resources and services.